createdAt,value
2022-11-12T00:01:54.492Z,17.13
2022-11-12T00:04:40.649Z,20.00
2022-11-12T00:07:28.429Z,18.02
2022-11-12T00:10:14.769Z,15.68
2022-11-12T00:13:01.155Z,15.50
2022-11-12T00:15:48.144Z,13.45
2022-11-12T00:18:34.524Z,16.40
2022-11-12T00:21:20.887Z,13.35
2022-11-12T00:24:08.788Z,14.60
2022-11-12T00:26:55.150Z,12.38
2022-11-12T00:29:41.311Z,15.40
2022-11-12T00:32:28.196Z,11.43
2022-11-12T00:35:14.519Z,14.85
2022-11-12T00:38:01.290Z,12.25
2022-11-12T00:40:49.049Z,12.13
2022-11-12T00:43:35.637Z,12.27
2022-11-12T00:46:21.968Z,12.52
2022-11-12T00:49:08.106Z,10.75
2022-11-12T00:51:55.445Z,12.35
2022-11-12T00:54:41.815Z,12.48
2022-11-12T00:57:29.269Z,11.95
2022-11-12T01:00:17.836Z,10.82
2022-11-12T01:03:04.317Z,10.60
2022-11-12T01:05:50.447Z,12.88
2022-11-12T01:08:37.053Z,12.23
2022-11-12T01:11:26.202Z,12.75
2022-11-12T01:14:13.987Z,14.00
2022-11-12T01:17:00.524Z,11.60
2022-11-12T01:19:46.911Z,11.50
2022-11-12T01:22:33.077Z,13.52
2022-11-12T01:25:19.235Z,13.68
2022-11-12T01:28:06.298Z,10.48
2022-11-12T01:30:54.059Z,10.68
2022-11-12T01:33:40.607Z,13.38
2022-11-12T01:36:30.417Z,12.45
2022-11-12T01:39:16.600Z,10.82
2022-11-12T01:42:02.835Z,11.23
2022-11-12T01:44:49.106Z,11.07
2022-11-12T01:47:36.869Z,11.85
2022-11-12T01:50:27.121Z,11.00
2022-11-12T01:53:14.147Z,11.05
2022-11-12T01:56:01.866Z,13.40
2022-11-12T01:58:51.253Z,11.05
2022-11-12T02:01:38.744Z,13.07
2022-11-12T02:04:27.852Z,16.40
2022-11-12T02:07:14.686Z,10.75
2022-11-12T02:10:03.021Z,11.57
2022-11-12T02:13:07.684Z,10.48
2022-11-12T02:15:54.077Z,13.45
2022-11-12T02:18:43.368Z,10.75
2022-11-12T02:21:32.578Z,13.82
2022-11-12T02:24:36.840Z,10.73
2022-11-12T02:27:24.557Z,10.10
2022-11-12T02:30:11.966Z,11.88
2022-11-12T02:32:58.824Z,11.18
2022-11-12T02:35:45.093Z,12.77
2022-11-12T02:38:32.964Z,13.25
2022-11-12T02:41:19.386Z,11.88
2022-11-12T02:44:06.026Z,13.13
2022-11-12T02:46:52.119Z,10.52
2022-11-12T02:49:38.503Z,14.65
2022-11-12T02:52:24.457Z,11.73
2022-11-12T02:55:13.444Z,11.00
2022-11-12T02:58:00.496Z,12.45
2022-11-12T03:00:46.541Z,11.90
2022-11-12T03:03:32.516Z,11.18
2022-11-12T03:06:18.715Z,11.60
2022-11-12T03:09:05.102Z,10.43
2022-11-12T03:11:52.888Z,13.20
2022-11-12T03:14:39.041Z,13.07
2022-11-12T03:17:25.247Z,13.75
2022-11-12T03:20:11.909Z,12.80
2022-11-12T03:22:59.505Z,14.57
2022-11-12T03:25:45.567Z,15.13
2022-11-12T03:28:33.712Z,12.15
2022-11-12T03:31:20.970Z,13.30
2022-11-12T03:34:06.954Z,13.48
2022-11-12T03:36:53.269Z,14.60
2022-11-12T03:39:39.889Z,16.10
2022-11-12T03:42:25.966Z,11.48
2022-11-12T03:45:13.765Z,14.27
2022-11-12T03:48:00.277Z,13.73
2022-11-12T03:50:46.512Z,12.65
2022-11-12T03:53:32.944Z,14.02
2022-11-12T03:56:19.345Z,11.63
2022-11-12T03:59:06.281Z,13.65
2022-11-12T04:01:54.071Z,13.98
2022-11-12T04:04:54.599Z,16.20
2022-11-12T04:08:09.695Z,15.82
2022-11-12T04:10:56.003Z,17.15
2022-11-12T04:13:47.521Z,14.50
2022-11-12T04:16:51.621Z,15.98
2022-11-12T04:19:57.007Z,14.20
2022-11-12T04:22:43.299Z,14.23
2022-11-12T04:25:46.910Z,15.38
2022-11-12T04:28:33.425Z,15.27
2022-11-12T04:31:18.649Z,14.95
2022-11-12T04:34:19.044Z,13.75
2022-11-12T04:37:07.206Z,16.95
2022-11-12T04:39:53.733Z,17.13
2022-11-12T04:42:57.449Z,17.05
2022-11-12T04:45:45.966Z,15.43
2022-11-12T04:48:32.798Z,16.90
2022-11-12T04:51:51.026Z,13.20
2022-11-12T04:54:41.450Z,17.15
2022-11-12T04:57:27.825Z,15.45
2022-11-12T05:00:15.054Z,16.55
2022-11-12T05:03:01.394Z,14.82
2022-11-12T05:05:47.970Z,13.48
2022-11-12T05:08:34.304Z,17.80
2022-11-12T05:11:21.995Z,15.30
2022-11-12T05:14:08.380Z,18.48
2022-11-12T05:16:54.707Z,15.05
2022-11-12T05:19:41.084Z,15.20
2022-11-12T05:22:44.006Z,17.20
2022-11-12T05:25:33.732Z,14.73
2022-11-12T05:28:21.540Z,15.02
2022-11-12T05:31:08.042Z,16.35
2022-11-12T05:33:53.978Z,15.40
2022-11-12T05:36:40.569Z,19.90
2022-11-12T05:39:27.035Z,17.35
2022-11-12T05:42:14.277Z,17.63
2022-11-12T05:45:02.310Z,14.68
2022-11-12T05:47:48.863Z,14.10
2022-11-12T05:50:45.426Z,15.30
2022-11-12T05:53:41.516Z,16.13
2022-11-12T05:56:28.112Z,16.52
2022-11-12T05:59:15.502Z,18.15
2022-11-12T06:02:02.966Z,16.35
2022-11-12T06:04:49.128Z,17.00
2022-11-12T06:07:35.614Z,16.50
2022-11-12T06:10:21.764Z,15.98
2022-11-12T06:13:08.596Z,14.63
2022-11-12T06:15:56.004Z,15.85
2022-11-12T06:18:43.781Z,16.60
2022-11-12T06:21:29.663Z,17.92
2022-11-12T06:24:16.090Z,16.95
2022-11-12T06:27:02.156Z,14.80
2022-11-12T06:29:48.946Z,19.30
2022-11-12T06:32:35.639Z,18.60
2022-11-12T06:35:23.165Z,16.40
2022-11-12T06:38:09.493Z,17.00
2022-11-12T06:40:55.858Z,19.17
2022-11-12T06:43:42.582Z,15.75
2022-11-12T06:46:29.051Z,17.17
2022-11-12T06:49:15.039Z,18.52
2022-11-12T06:52:02.632Z,17.48
2022-11-12T06:54:48.711Z,19.42
2022-11-12T06:57:35.324Z,18.73
2022-11-12T07:00:21.573Z,19.13
2022-11-12T07:03:08.403Z,18.40
2022-11-12T07:05:55.163Z,16.35
2022-11-12T07:08:43.785Z,20.48
2022-11-12T07:11:29.862Z,18.25
2022-11-12T07:14:16.344Z,17.67
2022-11-12T07:17:04.912Z,19.95
2022-11-12T07:19:51.036Z,16.02
2022-11-12T07:22:37.644Z,17.23
2022-11-12T07:25:25.261Z,17.33
2022-11-12T07:28:11.391Z,15.10
2022-11-12T07:30:58.783Z,18.20
2022-11-12T07:33:49.646Z,15.40
2022-11-12T07:36:35.979Z,15.60
2022-11-12T07:39:22.011Z,17.00
2022-11-12T07:42:09.656Z,15.73
2022-11-12T07:44:55.922Z,14.50
2022-11-12T07:47:42.190Z,16.90
2022-11-12T07:50:28.248Z,15.90
2022-11-12T07:53:14.464Z,17.60
2022-11-12T07:56:04.477Z,16.63
2022-11-12T07:58:52.774Z,17.63
2022-11-12T08:01:40.546Z,16.33
2022-11-12T08:04:27.369Z,15.52
2022-11-12T08:07:14.063Z,18.00
2022-11-12T08:10:00.625Z,15.85
2022-11-12T08:12:46.993Z,15.95
2022-11-12T08:15:34.734Z,15.70
2022-11-12T08:18:21.328Z,16.20
2022-11-12T08:21:11.823Z,16.80
2022-11-12T08:23:58.022Z,13.82
2022-11-12T08:26:44.407Z,15.60
2022-11-12T08:29:30.401Z,12.25
2022-11-12T08:32:17.973Z,14.60
2022-11-12T08:35:04.337Z,16.58
2022-11-12T08:37:50.675Z,16.73
2022-11-12T08:40:36.951Z,14.52
2022-11-12T08:43:23.168Z,15.48
2022-11-12T08:46:09.288Z,16.42
2022-11-12T08:48:56.941Z,14.45
2022-11-12T08:51:43.162Z,15.45
2022-11-12T08:54:30.338Z,15.25
2022-11-12T08:57:16.497Z,16.73
2022-11-12T09:00:02.669Z,15.68
2022-11-12T09:02:48.877Z,14.88
2022-11-12T09:05:36.843Z,13.82
2022-11-12T09:08:26.077Z,14.65
2022-11-12T09:11:12.979Z,12.63
2022-11-12T09:13:59.273Z,13.38
2022-11-12T09:16:45.652Z,14.85
2022-11-12T09:19:32.188Z,14.80
2022-11-12T09:22:20.024Z,17.63
2022-11-12T09:25:07.559Z,13.95
2022-11-12T09:27:54.193Z,14.82
2022-11-12T09:30:45.456Z,13.05
2022-11-12T09:33:33.505Z,17.65
2022-11-12T09:36:19.481Z,14.25
2022-11-12T09:39:06.913Z,15.98
2022-11-12T09:41:56.650Z,14.90
2022-11-12T09:44:56.188Z,15.55
2022-11-12T09:47:46.278Z,15.23
2022-11-12T09:50:37.516Z,19.95
2022-11-12T09:53:30.962Z,17.52
2022-11-12T09:56:22.180Z,16.27
2022-11-12T09:59:12.735Z,20.45
2022-11-12T10:02:07.313Z,14.63
2022-11-12T10:05:26.930Z,16.88
2022-11-12T10:08:30.004Z,15.75
2022-11-12T10:11:54.784Z,15.82
2022-11-12T10:14:58.816Z,16.42
2022-11-12T10:17:51.559Z,17.23
2022-11-12T10:20:44.562Z,17.30
2022-11-12T10:23:39.913Z,16.92
2022-11-12T10:26:32.503Z,15.63
2022-11-12T10:29:29.552Z,17.63
2022-11-12T10:32:17.215Z,16.63
2022-11-12T10:35:03.710Z,18.83
2022-11-12T10:37:55.436Z,16.73
2022-11-12T10:40:42.419Z,17.65
2022-11-12T10:43:30.116Z,15.18
2022-11-12T10:46:20.873Z,16.88
2022-11-12T10:49:18.861Z,16.02
2022-11-12T10:52:05.424Z,19.23
2022-11-12T10:55:06.454Z,21.40
2022-11-12T10:58:05.587Z,16.60
2022-11-12T11:01:01.791Z,15.75
2022-11-12T11:03:54.787Z,16.10
2022-11-12T11:06:40.977Z,14.77
2022-11-12T11:09:27.574Z,16.95
2022-11-12T11:12:24.500Z,29.88
2022-11-12T11:15:21.037Z,22.13
2022-11-12T11:18:12.201Z,17.17
2022-11-12T11:21:15.481Z,24.33
2022-11-12T11:24:13.917Z,14.82
2022-11-12T11:27:05.987Z,12.23
2022-11-12T11:30:03.644Z,18.77
2022-11-12T11:33:19.678Z,13.63
2022-11-12T11:36:20.440Z,14.27
2022-11-12T11:39:16.746Z,13.07
2022-11-12T11:42:14.930Z,12.77
2022-11-12T11:45:08.071Z,12.00
2022-11-12T11:48:01.730Z,12.82
2022-11-12T11:51:00.590Z,13.50
2022-11-12T11:54:01.420Z,13.85
2022-11-12T11:57:06.606Z,20.45
2022-11-12T12:00:08.804Z,14.18
2022-11-12T12:03:12.928Z,13.13
2022-11-12T12:06:15.698Z,10.38
2022-11-12T12:09:17.865Z,11.98
2022-11-12T12:12:14.455Z,12.35
2022-11-12T12:15:12.933Z,14.73
2022-11-12T12:18:09.138Z,15.60
2022-11-12T12:21:02.609Z,19.15
2022-11-12T12:23:54.549Z,14.50
2022-11-12T12:26:47.828Z,13.30
2022-11-12T12:29:38.138Z,14.68
2022-11-12T12:32:30.434Z,11.77
2022-11-12T12:35:24.206Z,12.43
2022-11-12T12:38:16.497Z,11.75
2022-11-12T12:41:12.445Z,13.25
2022-11-12T12:44:04.487Z,10.70
2022-11-12T12:46:57.361Z,10.98
2022-11-12T12:49:45.410Z,9.82
2022-11-12T12:52:31.688Z,9.18
2022-11-12T12:55:40.041Z,11.80
2022-11-12T12:58:30.383Z,14.55
2022-11-12T13:01:31.322Z,19.08
2022-11-12T13:04:17.758Z,12.52
2022-11-12T13:07:09.913Z,12.48
2022-11-12T13:10:30.477Z,12.70
2022-11-12T13:13:33.550Z,10.13
2022-11-12T13:16:57.097Z,10.57
2022-11-12T13:19:47.299Z,11.98
2022-11-12T13:22:52.406Z,12.45
2022-11-12T13:25:39.771Z,10.77
2022-11-12T13:28:26.504Z,12.73
2022-11-12T13:31:28.445Z,11.65
2022-11-12T13:34:22.573Z,12.18
2022-11-12T13:37:23.077Z,10.00
2022-11-12T13:40:14.453Z,11.38
2022-11-12T13:43:08.112Z,9.70
2022-11-12T13:45:57.938Z,8.98
2022-11-12T13:48:48.124Z,9.48
2022-11-12T13:51:43.483Z,12.57
2022-11-12T13:54:33.543Z,11.35
2022-11-12T13:57:31.616Z,7.75
2022-11-12T14:00:26.850Z,10.18
2022-11-12T14:03:19.216Z,11.00
2022-11-12T14:06:16.926Z,8.60
2022-11-12T14:09:17.532Z,9.27
2022-11-12T14:12:36.710Z,12.32
2022-11-12T14:15:41.973Z,11.65
2022-11-12T14:18:38.996Z,8.35
2022-11-12T14:21:26.649Z,9.13
2022-11-12T14:24:13.880Z,10.43
2022-11-12T14:27:00.407Z,9.60
2022-11-12T14:29:46.896Z,8.00
2022-11-12T14:32:36.786Z,10.77
2022-11-12T14:35:35.875Z,13.10
2022-11-12T14:38:27.917Z,11.82
2022-11-12T14:41:21.387Z,12.30
2022-11-12T14:44:13.013Z,10.48
2022-11-12T14:47:00.505Z,9.23
2022-11-12T14:49:50.437Z,10.13
2022-11-12T14:52:41.670Z,10.07
2022-11-12T14:55:33.254Z,9.40
2022-11-12T14:58:21.152Z,8.10
2022-11-12T15:04:39.004Z,12.02
2022-11-12T15:07:27.411Z,9.57
2022-11-12T15:10:33.676Z,9.80
2022-11-12T15:13:22.575Z,9.23
2022-11-12T15:16:11.401Z,11.40
2022-11-12T15:19:06.878Z,11.95
2022-11-12T15:21:55.641Z,11.27
2022-11-12T15:24:45.014Z,8.65
2022-11-12T15:27:39.408Z,14.98
2022-11-12T15:30:27.903Z,12.32
2022-11-12T15:33:19.493Z,13.80
2022-11-12T15:36:06.300Z,10.38
2022-11-12T15:38:54.715Z,14.68
2022-11-12T15:41:41.344Z,20.92
2022-11-12T15:44:34.435Z,13.55
2022-11-12T15:47:22.512Z,14.35
2022-11-12T15:50:16.909Z,13.75
2022-11-12T15:53:03.408Z,13.43
2022-11-12T15:55:52.137Z,13.55
2022-11-12T15:58:40.428Z,12.45
2022-11-12T16:01:28.216Z,15.60
2022-11-12T16:04:15.015Z,13.00
2022-11-12T16:07:01.568Z,12.57
2022-11-12T16:09:47.804Z,10.45
2022-11-12T16:12:34.572Z,16.73
2022-11-12T16:15:25.448Z,13.25
2022-11-12T16:18:13.366Z,10.93
2022-11-12T16:20:59.395Z,12.20
2022-11-12T16:23:45.479Z,13.35
2022-11-12T16:26:33.058Z,11.48
2022-11-12T16:29:19.392Z,14.18
2022-11-12T16:32:06.474Z,9.68
2022-11-12T16:34:59.888Z,15.27
2022-11-12T16:37:48.734Z,13.93
2022-11-12T16:40:34.964Z,12.35
2022-11-12T16:43:21.088Z,10.13
2022-11-12T16:46:26.149Z,12.63
2022-11-12T16:49:26.339Z,9.02
2022-11-12T16:52:16.163Z,12.75
2022-11-12T16:55:04.827Z,14.48
2022-11-12T16:57:51.867Z,12.18
2022-11-12T17:00:38.922Z,11.95
2022-11-12T17:03:25.239Z,14.18
2022-11-12T17:06:12.003Z,11.60
2022-11-12T17:08:59.961Z,11.90
2022-11-12T17:11:46.492Z,15.05
2022-11-12T17:14:32.573Z,13.07
2022-11-12T17:17:18.621Z,14.35
2022-11-12T17:20:05.750Z,13.10
2022-11-12T17:22:52.105Z,13.27
2022-11-12T17:25:39.498Z,13.77
2022-11-12T17:28:25.495Z,16.27
2022-11-12T17:31:13.433Z,17.40
2022-11-12T17:33:59.838Z,16.67
2022-11-12T17:36:46.413Z,16.75
2022-11-12T17:39:32.614Z,17.00
2022-11-12T17:42:20.177Z,15.05
2022-11-12T17:45:07.702Z,13.93
2022-11-12T17:47:54.106Z,12.93
2022-11-12T17:50:40.664Z,16.40
2022-11-12T17:53:27.144Z,15.15
2022-11-12T17:56:15.572Z,14.85
2022-11-12T17:59:03.895Z,16.45
2022-11-12T18:01:50.220Z,14.50
2022-11-12T18:04:36.914Z,13.85
2022-11-12T18:07:23.252Z,16.95
2022-11-12T18:10:09.992Z,14.60
2022-11-12T18:12:56.006Z,16.08
2022-11-12T18:15:43.411Z,14.63
2022-11-12T18:18:30.364Z,15.10
2022-11-12T18:21:17.255Z,19.25
2022-11-12T18:24:04.038Z,19.23
2022-11-12T18:26:50.603Z,26.20
2022-11-12T18:29:36.981Z,24.02
2022-11-12T18:32:24.751Z,19.95
2022-11-12T18:35:11.051Z,23.80
2022-11-12T18:37:57.552Z,29.33
2022-11-12T18:40:43.727Z,23.65
2022-11-12T18:43:30.381Z,24.45
2022-11-12T18:46:16.915Z,21.23
2022-11-12T18:49:05.176Z,22.48
2022-11-12T18:51:51.642Z,22.67
2022-11-12T18:54:38.079Z,22.48
2022-11-12T18:57:24.329Z,21.45
2022-11-12T19:00:14.334Z,22.75
2022-11-12T19:03:00.724Z,22.88
2022-11-12T19:05:48.501Z,20.83
2022-11-12T19:08:35.327Z,17.98
2022-11-12T19:11:21.913Z,19.63
2022-11-12T19:14:07.955Z,15.27
2022-11-12T19:16:54.542Z,14.48
2022-11-12T19:19:40.726Z,15.10
2022-11-12T19:22:28.312Z,23.20
2022-11-12T19:25:14.542Z,29.65
2022-11-12T19:28:00.747Z,26.08
2022-11-12T19:30:47.048Z,22.77
2022-11-12T19:33:33.803Z,19.92
2022-11-12T19:36:22.598Z,22.27
2022-11-12T19:39:09.990Z,26.13
2022-11-12T19:41:56.180Z,17.63
2022-11-12T19:44:42.748Z,14.90
2022-11-12T19:47:29.218Z,14.95
2022-11-12T19:50:15.581Z,12.43
2022-11-12T19:53:01.819Z,14.13
2022-11-12T19:55:49.300Z,13.07
2022-11-12T19:58:39.129Z,11.13
2022-11-12T20:01:25.355Z,11.10
2022-11-12T20:04:12.480Z,13.88
2022-11-12T20:07:01.758Z,12.65
2022-11-12T20:09:48.317Z,11.90
2022-11-12T20:12:36.543Z,14.27
2022-11-12T20:15:22.983Z,13.07
2022-11-12T20:18:09.248Z,15.48
2022-11-12T20:20:57.586Z,15.88
2022-11-12T20:23:45.785Z,15.10
2022-11-12T20:26:31.881Z,11.68
2022-11-12T20:29:19.890Z,14.18
2022-11-12T20:32:06.903Z,12.27
2022-11-12T20:34:52.998Z,10.93
2022-11-12T20:37:39.324Z,11.45
2022-11-12T20:40:27.860Z,13.00
2022-11-12T20:43:15.805Z,10.10
2022-11-12T20:46:03.335Z,9.40
2022-11-12T20:48:49.821Z,10.25
2022-11-12T20:51:36.956Z,10.95
2022-11-12T20:54:23.024Z,10.65
2022-11-12T20:57:09.675Z,11.98
2022-11-12T20:59:56.382Z,9.10
2022-11-12T21:02:44.187Z,11.30
2022-11-12T21:05:30.472Z,12.40
2022-11-12T21:08:16.491Z,13.90
2022-11-12T21:11:04.403Z,13.93
2022-11-12T21:13:50.878Z,11.70
2022-11-12T21:16:37.019Z,14.45
2022-11-12T21:19:24.667Z,14.05
2022-11-12T21:22:11.275Z,12.35
2022-11-12T21:24:57.479Z,12.73
2022-11-12T21:27:43.946Z,11.43
2022-11-12T21:30:30.705Z,10.93
2022-11-12T21:33:16.946Z,11.80
2022-11-12T21:36:06.052Z,15.45
2022-11-12T21:38:52.123Z,13.63
2022-11-12T21:41:38.832Z,10.73
2022-11-12T21:44:24.944Z,12.70
2022-11-12T21:47:11.177Z,13.13
2022-11-12T21:49:57.452Z,14.80
2022-11-12T21:52:45.058Z,11.30
2022-11-12T21:55:31.551Z,11.60
2022-11-12T21:58:17.598Z,11.82
2022-11-12T22:01:08.526Z,11.48
2022-11-12T22:03:55.877Z,12.40
2022-11-12T22:06:42.108Z,13.95
2022-11-12T22:09:29.734Z,13.02
2022-11-12T22:12:15.930Z,12.13
2022-11-12T22:15:02.142Z,13.25
2022-11-12T22:17:48.208Z,12.93
2022-11-12T22:20:34.318Z,12.70
2022-11-12T22:23:20.591Z,15.35
2022-11-12T22:26:11.436Z,14.60
2022-11-12T22:29:00.108Z,13.00
2022-11-12T22:31:46.187Z,10.85
2022-11-12T22:34:32.676Z,14.15
2022-11-12T22:37:18.864Z,12.23
2022-11-12T22:40:09.224Z,13.38
2022-11-12T22:43:00.608Z,14.82
2022-11-12T22:45:46.491Z,15.32
2022-11-12T22:48:32.752Z,14.07
2022-11-12T22:51:21.289Z,16.23
2022-11-12T22:54:09.359Z,12.88
2022-11-12T22:56:55.806Z,15.80
2022-11-12T22:59:43.702Z,20.15
2022-11-12T23:02:29.813Z,16.02
2022-11-12T23:05:16.436Z,15.25
2022-11-12T23:08:03.049Z,13.27
2022-11-12T23:10:52.096Z,13.88
2022-11-12T23:13:39.449Z,15.68
2022-11-12T23:16:31.258Z,16.52
2022-11-12T23:19:17.604Z,14.70
2022-11-12T23:22:07.657Z,15.73
2022-11-12T23:24:54.276Z,15.80
2022-11-12T23:27:40.609Z,12.98
2022-11-12T23:30:30.110Z,14.70
2022-11-12T23:33:17.945Z,16.73
2022-11-12T23:36:05.485Z,16.83
2022-11-12T23:38:52.153Z,19.13
2022-11-12T23:41:38.619Z,14.77
2022-11-12T23:44:24.771Z,16.08
2022-11-12T23:47:10.922Z,15.82
2022-11-12T23:49:58.710Z,15.13
2022-11-12T23:52:45.223Z,15.02
2022-11-12T23:55:36.095Z,15.02
2022-11-12T23:58:24.661Z,15.38
